Terminal Aerodrome Forecast
Issued by NWS

Home | Current Version | Previous Version | Text Only | Print | Product List | Glossary On
Versions: 1 2 3 4 5 6 7 8 9 10 11 12 13 14 15 16 17 18
526
FTUS46 KSEW 120119 AAB
TAFHQM
TAF AMD
KHQM 120119Z 1201/1224 05006KT 3SM -RA BR BKN012 OVC020
     FM120400 08008KT 3SM -RA BR BKN008 OVC015
     FM120900 12010KT 4SM -RA BR OVC025
     FM121400 17010KT 4SM -RA BR OVC015
     FM121600 22015KT P6SM -SHRA BKN050 OVC100=

USA.gov is the U.S. government's official web portal to all federal, state and local government web resources and services.